sim
Sign-in with your pilot id or email,
or register
Callsign
Passwort

Schedule Details

Flight Number: OEO8797
Departure: Sylt Airport (EDXW) at 12:45
Arrival: Munich Airport (EDDM) at 14:25

Weather Information
Getting current METAR information for EDXW 260750Z 26005KT 230V310 9999 SCT041 15/09 Q0997
Getting current METAR information for EDDM 260750Z 26015KT 9999 -RADZ SCT016 BKN022 08/05 Q0999 NOSIG

Schedule Frequency

Route Map